createdAt,value
2023-04-15T00:00:00.425Z,3.92
2023-04-15T00:02:29.935Z,3.70
2023-04-15T00:04:56.553Z,3.80
2023-04-15T00:07:23.000Z,3.88
2023-04-15T00:09:49.636Z,3.50
2023-04-15T00:12:18.207Z,3.72
2023-04-15T00:14:44.982Z,4.10
2023-04-15T00:17:14.052Z,4.00
2023-04-15T00:19:40.896Z,3.40
2023-04-15T00:22:08.042Z,3.90
2023-04-15T00:24:34.545Z,3.60
2023-04-15T00:27:01.026Z,3.58
2023-04-15T00:29:27.591Z,3.60
2023-04-15T00:31:54.572Z,3.58
2023-04-15T00:34:21.311Z,3.67
2023-04-15T00:36:50.326Z,3.38
2023-04-15T00:39:16.946Z,4.13
2023-04-15T00:41:48.857Z,3.40
2023-04-15T00:44:15.565Z,3.28
2023-04-15T00:46:45.627Z,3.25
2023-04-15T00:49:17.540Z,3.88
2023-04-15T00:51:44.810Z,3.55
2023-04-15T00:54:14.392Z,3.72
2023-04-15T00:56:42.953Z,3.50
2023-04-15T00:59:09.816Z,3.63
2023-04-15T01:01:37.188Z,3.90
2023-04-15T01:04:05.125Z,3.85
2023-04-15T01:06:32.764Z,3.67
2023-04-15T01:09:02.379Z,3.50
2023-04-15T01:11:29.566Z,3.60
2023-04-15T01:13:58.512Z,3.35
2023-04-15T01:16:28.747Z,3.95
2023-04-15T01:18:56.190Z,3.72
2023-04-15T01:21:25.483Z,4.20
2023-04-15T01:23:55.319Z,3.35
2023-04-15T01:26:22.495Z,3.97
2023-04-15T01:28:49.328Z,3.40
2023-04-15T01:31:15.809Z,3.58
2023-04-15T01:33:43.494Z,3.80
2023-04-15T01:36:10.847Z,3.28
2023-04-15T01:38:38.469Z,3.87
2023-04-15T01:41:10.377Z,3.47
2023-04-15T01:43:37.391Z,3.53
2023-04-15T01:46:04.128Z,2.95
2023-04-15T01:48:33.490Z,3.40
2023-04-15T01:51:03.341Z,4.00
2023-04-15T01:53:30.046Z,3.72
2023-04-15T01:55:59.031Z,3.55
2023-04-15T01:58:25.609Z,3.72
2023-04-15T02:00:55.117Z,3.33
2023-04-15T02:03:21.830Z,3.17
2023-04-15T02:05:48.355Z,3.72
2023-04-15T02:08:14.846Z,3.42
2023-04-15T02:10:41.393Z,3.65
2023-04-15T02:13:10.884Z,3.63
2023-04-15T02:15:37.447Z,3.30
2023-04-15T02:18:06.821Z,3.45
2023-04-15T02:20:36.807Z,4.00
2023-04-15T02:23:07.282Z,3.38
2023-04-15T02:25:33.797Z,3.35
2023-04-15T02:28:02.986Z,3.85
2023-04-15T02:30:34.129Z,3.75
2023-04-15T02:33:01.422Z,3.85
2023-04-15T02:35:32.674Z,3.22
2023-04-15T02:38:03.930Z,3.88
2023-04-15T02:40:30.447Z,3.80
2023-04-15T02:42:56.889Z,3.97
2023-04-15T02:45:27.599Z,3.28
2023-04-15T02:47:54.909Z,3.25
2023-04-15T02:50:25.259Z,3.75
2023-04-15T02:52:54.190Z,3.33
2023-04-15T02:55:23.487Z,3.25
2023-04-15T02:57:52.378Z,3.80
2023-04-15T03:00:21.620Z,3.40
2023-04-15T03:02:52.429Z,3.70
2023-04-15T03:05:21.372Z,3.25
2023-04-15T03:07:47.855Z,4.22
2023-04-15T03:10:14.429Z,3.58
2023-04-15T03:12:43.755Z,4.10
2023-04-15T03:15:10.444Z,3.83
2023-04-15T03:17:37.064Z,4.40
2023-04-15T03:20:05.591Z,4.13
2023-04-15T03:22:34.696Z,4.13
2023-04-15T03:25:01.721Z,3.58
2023-04-15T03:27:28.190Z,4.10
2023-04-15T03:29:54.608Z,3.50
2023-04-15T03:32:23.482Z,3.90
2023-04-15T03:34:50.275Z,3.30
2023-04-15T03:37:19.245Z,3.70
2023-04-15T03:39:46.210Z,3.75
2023-04-15T03:42:12.619Z,3.83
2023-04-15T03:44:39.106Z,4.05
2023-04-15T03:47:05.616Z,4.15
2023-04-15T03:49:32.148Z,4.35
2023-04-15T03:51:59.688Z,4.18
2023-04-15T03:54:26.536Z,3.80
2023-04-15T03:56:53.101Z,4.75
2023-04-15T03:59:19.896Z,3.70
2023-04-15T04:01:46.870Z,4.00
2023-04-15T04:04:13.644Z,4.10
2023-04-15T04:06:44.807Z,4.30
2023-04-15T04:09:13.761Z,3.92
2023-04-15T04:11:41.300Z,4.32
2023-04-15T04:14:07.778Z,4.05
2023-04-15T04:16:42.120Z,4.30
2023-04-15T04:19:10.856Z,4.43
2023-04-15T04:21:39.705Z,4.03
2023-04-15T04:24:08.431Z,4.63
2023-04-15T04:26:37.126Z,3.83
2023-04-15T04:29:04.119Z,3.80
2023-04-15T04:31:31.121Z,4.25
2023-04-15T04:33:59.671Z,4.22
2023-04-15T04:36:26.600Z,4.30
2023-04-15T04:38:58.342Z,4.47
2023-04-15T04:41:24.909Z,4.45
2023-04-15T04:43:51.348Z,4.65
2023-04-15T04:46:17.950Z,4.22
2023-04-15T04:48:46.627Z,4.15
2023-04-15T04:51:16.091Z,4.43
2023-04-15T04:53:43.651Z,4.68
2023-04-15T04:56:13.056Z,4.13
2023-04-15T04:58:39.572Z,4.45
2023-04-15T05:01:08.999Z,4.63
2023-04-15T05:03:35.697Z,4.68
2023-04-15T05:06:07.359Z,4.70
2023-04-15T05:08:37.328Z,4.43
2023-04-15T05:11:05.257Z,4.65
2023-04-15T05:13:31.790Z,4.60
2023-04-15T05:16:00.706Z,4.47
2023-04-15T05:18:27.367Z,5.20
2023-04-15T05:20:56.360Z,4.85
2023-04-15T05:23:22.892Z,5.10
2023-04-15T05:25:52.106Z,4.72
2023-04-15T05:28:18.599Z,4.55
2023-04-15T05:30:50.529Z,4.55
2023-04-15T05:33:21.583Z,4.40
2023-04-15T05:35:48.054Z,4.45
2023-04-15T05:38:14.883Z,4.85
2023-04-15T05:40:41.396Z,4.57
2023-04-15T05:43:10.959Z,4.93
2023-04-15T05:45:39.840Z,5.20
2023-04-15T05:48:08.952Z,4.32
2023-04-15T05:50:35.867Z,4.72
2023-04-15T05:53:04.881Z,4.60
2023-04-15T05:55:34.874Z,4.88
2023-04-15T05:58:01.354Z,5.00
2023-04-15T06:00:27.778Z,5.05
2023-04-15T06:02:56.966Z,4.95
2023-04-15T06:05:25.848Z,4.78
2023-04-15T06:07:52.862Z,5.05
2023-04-15T06:10:19.312Z,4.65
2023-04-15T06:12:48.065Z,4.80
2023-04-15T06:15:17.513Z,4.82
2023-04-15T06:17:46.301Z,4.85
2023-04-15T06:20:15.114Z,5.07
2023-04-15T06:22:41.696Z,4.72
2023-04-15T06:25:09.285Z,5.05
2023-04-15T06:27:38.100Z,5.25
2023-04-15T06:30:05.487Z,4.72
2023-04-15T06:32:37.873Z,5.40
2023-04-15T06:35:07.556Z,5.88
2023-04-15T06:37:36.424Z,5.88
2023-04-15T06:40:05.026Z,5.40
2023-04-15T06:42:37.194Z,5.55
2023-04-15T06:45:04.395Z,6.03
2023-04-15T06:47:31.219Z,5.77
2023-04-15T06:49:57.683Z,5.68
2023-04-15T06:52:26.444Z,5.75
2023-04-15T06:54:55.286Z,5.55
2023-04-15T06:57:21.738Z,5.43
2023-04-15T06:59:54.660Z,5.85
2023-04-15T07:02:23.832Z,5.55
2023-04-15T07:04:50.383Z,5.75
2023-04-15T07:07:17.589Z,5.32
2023-04-15T07:09:45.180Z,4.75
2023-04-15T07:12:11.734Z,5.25
2023-04-15T07:14:38.296Z,5.05
2023-04-15T07:17:07.845Z,5.43
2023-04-15T07:19:36.696Z,5.25
2023-04-15T07:22:03.895Z,5.53
2023-04-15T07:24:32.467Z,5.17
2023-04-15T07:27:01.777Z,5.38
2023-04-15T07:29:33.211Z,4.63
2023-04-15T07:32:02.135Z,5.40
2023-04-15T07:34:30.137Z,5.18
2023-04-15T07:36:59.336Z,4.68
2023-04-15T07:39:25.904Z,4.68
2023-04-15T07:41:54.927Z,4.57
2023-04-15T07:44:21.458Z,4.45
2023-04-15T07:46:50.554Z,4.88
2023-04-15T07:49:19.273Z,4.40
2023-04-15T07:51:45.989Z,4.93
2023-04-15T07:54:12.656Z,4.28
2023-04-15T07:56:43.742Z,4.30
2023-04-15T07:59:12.968Z,4.85
2023-04-15T08:01:42.549Z,4.25
2023-04-15T08:04:09.250Z,3.85
2023-04-15T08:06:39.732Z,3.55
2023-04-15T08:09:08.951Z,3.88
2023-04-15T08:11:37.735Z,5.07
2023-04-15T08:14:06.947Z,3.45
2023-04-15T08:16:36.245Z,3.40
2023-04-15T08:19:03.981Z,3.55
2023-04-15T08:24:00.450Z,3.30
2023-04-15T08:26:29.218Z,2.72
2023-04-15T08:28:58.060Z,3.20
2023-04-15T08:31:27.843Z,2.80
2023-04-15T08:33:57.615Z,2.45
2023-04-15T08:36:24.075Z,2.80
2023-04-15T08:38:50.604Z,4.50
2023-04-15T08:41:24.551Z,2.90
2023-04-15T08:43:56.869Z,2.67
2023-04-15T08:46:28.977Z,4.22
2023-04-15T08:48:58.976Z,2.20
2023-04-15T08:51:29.064Z,2.60
2023-04-15T08:53:55.754Z,2.33
2023-04-15T08:56:26.977Z,2.40
2023-04-15T08:58:53.658Z,2.50
2023-04-15T09:01:20.506Z,2.70
2023-04-15T09:03:50.482Z,2.45
2023-04-15T09:06:21.977Z,3.08
2023-04-15T09:08:51.792Z,3.40
2023-04-15T09:11:20.214Z,3.40
2023-04-15T09:13:49.378Z,3.58
2023-04-15T09:16:18.843Z,4.03
2023-04-15T09:18:45.670Z,3.95
2023-04-15T09:21:14.542Z,4.20
2023-04-15T09:24:01.976Z,3.40
2023-04-15T09:26:36.305Z,3.42
2023-04-15T09:29:14.806Z,3.63
2023-04-15T09:31:41.820Z,3.53
2023-04-15T09:34:12.909Z,3.40
2023-04-15T09:37:00.162Z,3.08
2023-04-15T09:39:27.022Z,3.22
2023-04-15T09:42:07.251Z,3.22
2023-04-15T09:44:36.606Z,2.40
2023-04-15T09:47:03.147Z,2.00
2023-04-15T09:49:29.860Z,2.00
2023-04-15T09:52:06.195Z,1.95
2023-04-15T09:54:39.623Z,2.17
2023-04-15T09:57:15.766Z,2.13
2023-04-15T09:59:42.502Z,2.60
2023-04-15T10:02:09.314Z,2.33
2023-04-15T10:04:38.456Z,2.60
2023-04-15T10:07:08.087Z,1.98
2023-04-15T10:09:38.597Z,2.30
2023-04-15T10:12:07.843Z,2.13
2023-04-15T10:14:44.375Z,2.00
2023-04-15T10:17:20.770Z,2.63
2023-04-15T10:19:48.215Z,2.17
2023-04-15T10:22:14.983Z,2.30
2023-04-15T10:24:42.645Z,2.42
2023-04-15T10:27:09.693Z,2.38
2023-04-15T10:29:38.969Z,2.28
2023-04-15T10:32:08.105Z,2.58
2023-04-15T10:34:37.639Z,2.55
2023-04-15T10:37:04.736Z,2.60
2023-04-15T10:39:34.358Z,2.53
2023-04-15T10:42:08.007Z,2.97
2023-04-15T10:44:37.792Z,3.15
2023-04-15T10:47:14.720Z,2.70
2023-04-15T10:49:51.528Z,2.63
2023-04-15T10:52:25.852Z,2.45
2023-04-15T10:55:06.650Z,2.70
2023-04-15T10:57:41.320Z,2.30
2023-04-15T11:00:13.555Z,2.28
2023-04-15T11:02:52.311Z,2.33
2023-04-15T11:05:20.621Z,2.20
2023-04-15T11:07:48.421Z,1.83
2023-04-15T11:10:17.590Z,2.20
2023-04-15T11:12:51.160Z,2.00
2023-04-15T11:15:40.932Z,2.10
2023-04-15T11:18:16.374Z,2.30
2023-04-15T11:20:45.721Z,2.22
2023-04-15T11:23:15.101Z,2.28
2023-04-15T11:25:45.119Z,2.00
2023-04-15T11:28:12.987Z,2.00
2023-04-15T11:30:45.069Z,1.95
2023-04-15T11:33:16.309Z,1.90
2023-04-15T11:35:43.010Z,1.85
2023-04-15T11:38:17.868Z,2.20
2023-04-15T11:40:47.339Z,1.80
2023-04-15T11:43:18.658Z,1.70
2023-04-15T11:45:54.538Z,2.00
2023-04-15T11:48:26.663Z,1.80
2023-04-15T11:51:01.680Z,1.88
2023-04-15T11:53:42.145Z,1.80
2023-04-15T11:56:11.192Z,2.00
2023-04-15T11:58:42.428Z,2.10
2023-04-15T12:01:08.946Z,1.80
2023-04-15T12:03:43.715Z,2.08
2023-04-15T12:06:19.913Z,1.70
2023-04-15T12:08:49.329Z,2.00
2023-04-15T12:11:21.458Z,1.45
2023-04-15T12:13:51.340Z,1.60
2023-04-15T12:16:20.946Z,1.45
2023-04-15T12:18:51.862Z,1.70
2023-04-15T12:21:22.372Z,1.60
2023-04-15T12:23:52.905Z,2.20
2023-04-15T12:26:26.509Z,1.63
2023-04-15T12:29:00.497Z,1.67
2023-04-15T12:31:27.027Z,1.40
2023-04-15T12:34:00.676Z,1.65
2023-04-15T12:36:37.063Z,1.65
2023-04-15T12:39:06.387Z,1.35
2023-04-15T12:41:33.656Z,1.40
2023-04-15T12:44:02.699Z,1.35
2023-04-15T12:46:29.523Z,1.20
2023-04-15T12:48:57.050Z,1.33
2023-04-15T12:51:28.493Z,1.42
2023-04-15T12:53:54.959Z,1.23
2023-04-15T12:56:21.426Z,1.27
2023-04-15T12:58:55.254Z,1.30
2023-04-15T13:01:24.063Z,1.13
2023-04-15T13:03:53.122Z,1.23
2023-04-15T13:06:19.651Z,1.90
2023-04-15T13:08:57.904Z,1.33
2023-04-15T13:11:25.987Z,1.60
2023-04-15T13:13:55.069Z,1.00
2023-04-15T13:16:21.935Z,1.00
2023-04-15T13:18:48.972Z,1.30
2023-04-15T13:21:18.397Z,0.80
2023-04-15T13:23:51.462Z,1.20
2023-04-15T13:26:18.751Z,1.10
2023-04-15T13:28:46.172Z,1.30
2023-04-15T13:31:15.025Z,1.38
2023-04-15T13:33:41.618Z,0.90
2023-04-15T13:36:10.833Z,0.88
2023-04-15T13:38:37.373Z,0.80
2023-04-15T13:41:03.894Z,1.15
2023-04-15T13:43:34.232Z,0.95
2023-04-15T13:46:01.327Z,1.27
2023-04-15T13:48:31.055Z,1.07
2023-04-15T13:50:57.482Z,0.98
2023-04-15T13:53:28.161Z,1.20
2023-04-15T13:56:05.792Z,1.13
2023-04-15T13:58:39.707Z,0.93
2023-04-15T14:01:08.555Z,0.90
2023-04-15T14:03:38.001Z,1.00
2023-04-15T14:06:05.902Z,1.00
2023-04-15T14:08:35.263Z,1.25
2023-04-15T14:11:01.768Z,1.08
2023-04-15T14:13:28.397Z,1.23
2023-04-15T14:15:57.189Z,1.40
2023-04-15T14:18:23.746Z,1.50
2023-04-15T14:20:50.298Z,1.42
2023-04-15T14:23:16.769Z,1.17
2023-04-15T14:25:44.158Z,1.20
2023-04-15T14:28:11.983Z,1.58
2023-04-15T14:30:43.272Z,1.30
2023-04-15T14:33:12.496Z,1.25
2023-04-15T14:35:43.893Z,1.70
2023-04-15T14:38:12.916Z,1.40
2023-04-15T14:40:40.806Z,1.27
2023-04-15T14:43:09.829Z,2.03
2023-04-15T14:45:41.878Z,1.58
2023-04-15T14:48:10.379Z,2.28
2023-04-15T14:50:36.902Z,1.80
2023-04-15T14:53:05.978Z,1.90
2023-04-15T14:55:32.472Z,2.20
2023-04-15T14:57:58.942Z,1.50
2023-04-15T15:00:25.754Z,1.50
2023-04-15T15:02:54.558Z,1.33
2023-04-15T15:05:21.334Z,1.50
2023-04-15T15:07:47.917Z,1.30
2023-04-15T15:10:14.382Z,1.35
2023-04-15T15:12:40.917Z,1.33
2023-04-15T15:15:19.498Z,1.48
2023-04-15T15:17:54.455Z,1.10
2023-04-15T15:20:21.508Z,0.98
2023-04-15T15:22:47.986Z,0.95
2023-04-15T15:25:21.848Z,1.40
2023-04-15T15:27:51.735Z,1.33
2023-04-15T15:30:18.190Z,1.55
2023-04-15T15:32:46.980Z,1.20
2023-04-15T15:35:16.369Z,1.33
2023-04-15T15:37:43.393Z,2.35
2023-04-15T15:40:10.395Z,1.42
2023-04-15T15:42:39.342Z,1.33
2023-04-15T15:45:06.463Z,1.20
2023-04-15T15:47:33.057Z,1.25
2023-04-15T15:50:03.037Z,1.40
2023-04-15T15:52:33.013Z,1.63
2023-04-15T15:57:33.243Z,1.55
2023-04-15T16:00:10.545Z,1.70
2023-04-15T16:05:11.160Z,1.77
2023-04-15T16:07:39.895Z,2.50
2023-04-15T16:10:09.223Z,1.85
2023-04-15T16:12:36.131Z,1.33
2023-04-15T16:15:05.193Z,1.60
2023-04-15T16:17:34.988Z,1.52
2023-04-15T16:20:05.561Z,1.40
2023-04-15T16:22:36.477Z,1.70
2023-04-15T16:25:06.379Z,1.77
2023-04-15T16:27:33.820Z,1.90
2023-04-15T16:30:01.958Z,1.75
2023-04-15T16:32:30.788Z,1.63
2023-04-15T16:35:02.375Z,1.60
2023-04-15T16:37:28.855Z,1.60
2023-04-15T16:39:58.078Z,1.23
2023-04-15T16:42:24.739Z,2.75
2023-04-15T16:44:51.309Z,1.20
2023-04-15T16:47:20.161Z,1.58
2023-04-15T16:49:47.636Z,1.55
2023-04-15T16:52:14.328Z,1.50
2023-04-15T16:54:43.354Z,1.88
2023-04-15T16:57:09.911Z,1.10
2023-04-15T16:59:37.958Z,1.30
2023-04-15T17:02:04.561Z,1.65
2023-04-15T17:04:34.975Z,4.22
2023-04-15T17:07:01.564Z,1.40
2023-04-15T17:09:28.177Z,1.65
2023-04-15T17:11:57.567Z,1.70
2023-04-15T17:14:24.505Z,1.35
2023-04-15T17:16:53.344Z,1.50
2023-04-15T17:19:20.052Z,2.03
2023-04-15T17:21:46.533Z,2.25
2023-04-15T17:24:13.136Z,2.08
2023-04-15T17:26:42.177Z,1.55
2023-04-15T17:29:08.667Z,1.30
2023-04-15T17:31:35.386Z,1.17
2023-04-15T17:34:09.990Z,1.50
2023-04-15T17:36:37.410Z,1.70
2023-04-15T17:39:06.772Z,1.13
2023-04-15T17:41:38.030Z,1.55
2023-04-15T17:44:04.715Z,1.20
2023-04-15T17:46:33.697Z,1.77
2023-04-15T17:49:00.189Z,1.42
2023-04-15T17:51:26.831Z,1.30
2023-04-15T17:53:53.315Z,1.10
2023-04-15T17:56:22.332Z,1.05
2023-04-15T17:58:52.040Z,1.30
2023-04-15T18:01:23.405Z,0.98
2023-04-15T18:03:50.239Z,1.35
2023-04-15T18:06:17.055Z,1.30
2023-04-15T18:08:43.590Z,1.17
2023-04-15T18:11:12.762Z,1.02
2023-04-15T18:13:43.533Z,1.58
2023-04-15T18:16:12.995Z,1.67
2023-04-15T18:18:39.596Z,1.15
2023-04-15T18:21:06.266Z,1.52
2023-04-15T18:23:32.767Z,1.35
2023-04-15T18:26:01.798Z,0.98
2023-04-15T18:28:31.076Z,1.38
2023-04-15T18:30:57.589Z,1.15
2023-04-15T18:33:24.034Z,3.38
2023-04-15T18:35:52.843Z,1.13
2023-04-15T18:38:19.294Z,1.13
2023-04-15T18:40:46.011Z,1.25
2023-04-15T18:43:14.941Z,1.10
2023-04-15T18:45:41.478Z,1.00
2023-04-15T18:48:08.116Z,1.30
2023-04-15T18:50:34.705Z,1.42
2023-04-15T18:53:03.437Z,1.27
2023-04-15T18:55:32.314Z,1.23
2023-04-15T18:58:06.556Z,1.00
2023-04-15T19:00:39.052Z,1.88
2023-04-15T19:03:08.547Z,1.33
2023-04-15T19:05:40.015Z,1.88
2023-04-15T19:08:10.042Z,1.13
2023-04-15T19:10:36.750Z,1.30
2023-04-15T19:13:04.353Z,1.80
2023-04-15T19:15:35.953Z,1.58
2023-04-15T19:18:10.378Z,1.60
2023-04-15T19:20:40.291Z,1.35
2023-04-15T19:23:07.300Z,1.60
2023-04-15T19:25:33.950Z,1.20
2023-04-15T19:28:00.448Z,1.40
2023-04-15T19:30:29.298Z,1.10
2023-04-15T19:32:58.330Z,1.55
2023-04-15T19:35:27.315Z,1.38
2023-04-15T19:37:56.352Z,1.77
2023-04-15T19:40:25.540Z,1.17
2023-04-15T19:42:52.020Z,0.80
2023-04-15T19:45:18.551Z,1.60
2023-04-15T19:47:45.194Z,1.10
2023-04-15T19:50:15.684Z,1.35
2023-04-15T19:52:42.270Z,1.10
2023-04-15T19:55:11.322Z,2.53
2023-04-15T19:57:42.656Z,1.48
2023-04-15T20:00:09.821Z,1.95
2023-04-15T20:02:36.482Z,2.40
2023-04-15T20:05:09.715Z,2.90
2023-04-15T20:07:36.381Z,2.53
2023-04-15T20:10:08.609Z,1.67
2023-04-15T20:12:50.981Z,1.38
2023-04-15T20:15:20.061Z,1.90
2023-04-15T20:17:51.375Z,2.25
2023-04-15T20:20:23.057Z,1.90
2023-04-15T20:22:49.702Z,2.00
2023-04-15T20:25:16.294Z,1.75
2023-04-15T20:27:45.129Z,2.10
2023-04-15T20:30:11.812Z,1.30
2023-04-15T20:32:38.725Z,2.20
2023-04-15T20:35:06.832Z,1.30
2023-04-15T20:37:37.383Z,1.35
2023-04-15T20:40:04.192Z,1.60
2023-04-15T20:42:36.879Z,1.27
2023-04-15T20:45:03.903Z,1.38
2023-04-15T20:47:30.925Z,1.40
2023-04-15T20:49:57.490Z,1.60
2023-04-15T20:52:26.212Z,1.00
2023-04-15T20:54:52.707Z,1.58
2023-04-15T20:57:20.186Z,1.48
2023-04-15T20:59:46.695Z,1.50
2023-04-15T21:02:16.096Z,1.52
2023-04-15T21:04:42.604Z,2.00
2023-04-15T21:07:12.053Z,1.75
2023-04-15T21:09:43.775Z,1.45
2023-04-15T21:12:13.169Z,1.42
2023-04-15T21:14:42.147Z,1.92
2023-04-15T21:17:11.149Z,1.40
2023-04-15T21:19:40.673Z,1.98
2023-04-15T21:22:07.224Z,1.73
2023-04-15T21:24:38.450Z,2.00
2023-04-15T21:27:05.117Z,1.80
2023-04-15T21:29:33.761Z,2.95
2023-04-15T21:32:02.511Z,1.30
2023-04-15T21:34:29.044Z,1.27
2023-04-15T21:36:55.701Z,1.50
2023-04-15T21:39:22.149Z,1.95
2023-04-15T21:41:48.721Z,1.23
2023-04-15T21:44:15.417Z,1.48
2023-04-15T21:46:45.660Z,1.60
2023-04-15T21:49:12.620Z,1.33
2023-04-15T21:51:41.926Z,1.60
2023-04-15T21:54:10.890Z,1.60
2023-04-15T21:56:37.989Z,1.33
2023-04-15T21:59:04.803Z,1.40
2023-04-15T22:01:31.543Z,1.60
2023-04-15T22:04:00.616Z,1.40
2023-04-15T22:06:27.278Z,1.02
2023-04-15T22:08:57.813Z,1.50
2023-04-15T22:11:30.669Z,1.95
2023-04-15T22:13:59.963Z,1.73
2023-04-15T22:16:27.034Z,1.70
2023-04-15T22:18:54.427Z,1.90
2023-04-15T22:21:20.904Z,1.67
2023-04-15T22:23:50.957Z,1.98
2023-04-15T22:26:17.432Z,1.73
2023-04-15T22:28:46.373Z,2.20
2023-04-15T22:31:13.716Z,2.30
2023-04-15T22:33:42.583Z,1.93
2023-04-15T22:36:11.498Z,1.67
2023-04-15T22:38:38.014Z,1.65
2023-04-15T22:41:04.546Z,1.90
2023-04-15T22:43:33.334Z,2.05
2023-04-15T22:46:00.661Z,2.10
2023-04-15T22:48:29.353Z,2.20
2023-04-15T22:50:58.490Z,2.47
2023-04-15T22:53:25.058Z,2.17
2023-04-15T22:55:54.003Z,1.80
2023-04-15T22:58:23.168Z,2.13
2023-04-15T23:00:52.114Z,2.60
2023-04-15T23:03:21.347Z,2.20
2023-04-15T23:05:49.995Z,2.40
2023-04-15T23:08:18.857Z,2.70
2023-04-15T23:10:50.399Z,2.28
2023-04-15T23:13:16.923Z,2.22
2023-04-15T23:15:45.710Z,2.10
2023-04-15T23:18:12.334Z,2.33
2023-04-15T23:20:38.825Z,2.10
2023-04-15T23:23:05.385Z,2.20
2023-04-15T23:25:31.840Z,2.00
2023-04-15T23:28:00.915Z,1.88
2023-04-15T23:30:27.363Z,2.03
2023-04-15T23:32:58.164Z,2.20
2023-04-15T23:35:27.964Z,2.05
2023-04-15T23:37:54.438Z,2.10
2023-04-15T23:40:21.050Z,2.30
2023-04-15T23:42:47.876Z,2.10
2023-04-15T23:45:16.840Z,1.88
2023-04-15T23:47:48.555Z,2.03
2023-04-15T23:50:15.003Z,2.10
2023-04-15T23:52:41.523Z,2.50
2023-04-15T23:55:11.073Z,2.75
2023-04-15T23:57:40.517Z,2.50
